sensor_id;sensor_type;location;lat;lon;timestamp;P1;durP1;ratioP1;P2;durP2;ratioP2
9142;SDS011;54072;47.410;8.446;2022-08-19T00:00:53;14.73;;;11.07;;
9142;SDS011;54072;47.410;8.446;2022-08-19T00:03:20;17.77;;;12.77;;
9142;SDS011;54072;47.410;8.446;2022-08-19T00:05:48;26.77;;;12.97;;
9142;SDS011;54072;47.410;8.446;2022-08-19T00:08:15;16.67;;;12.00;;
9142;SDS011;54072;47.410;8.446;2022-08-19T00:10:43;19.63;;;12.60;;
9142;SDS011;54072;47.410;8.446;2022-08-19T00:13:13;18.67;;;12.77;;
9142;SDS011;54072;47.410;8.446;2022-08-19T00:15:41;18.90;;;12.87;;
9142;SDS011;54072;47.410;8.446;2022-08-19T00:18:10;23.07;;;13.57;;
9142;SDS011;54072;47.410;8.446;2022-08-19T00:20:38;18.63;;;12.87;;
9142;SDS011;54072;47.410;8.446;2022-08-19T00:23:06;19.97;;;14.13;;
9142;SDS011;54072;47.410;8.446;2022-08-19T00:25:34;23.77;;;13.47;;
9142;SDS011;54072;47.410;8.446;2022-08-19T00:28:02;29.83;;;14.67;;
9142;SDS011;54072;47.410;8.446;2022-08-19T00:30:31;22.70;;;15.07;;
9142;SDS011;54072;47.410;8.446;2022-08-19T00:32:59;25.40;;;14.47;;
9142;SDS011;54072;47.410;8.446;2022-08-19T00:35:28;20.80;;;14.13;;
9142;SDS011;54072;47.410;8.446;2022-08-19T00:37:56;34.47;;;16.70;;
9142;SDS011;54072;47.410;8.446;2022-08-19T00:40:25;31.57;;;15.80;;
9142;SDS011;54072;47.410;8.446;2022-08-19T00:42:52;33.30;;;15.60;;
9142;SDS011;54072;47.410;8.446;2022-08-19T00:45:21;27.07;;;14.90;;
9142;SDS011;54072;47.410;8.446;2022-08-19T00:47:50;36.77;;;16.07;;
9142;SDS011;54072;47.410;8.446;2022-08-19T00:50:20;31.03;;;15.57;;
9142;SDS011;54072;47.410;8.446;2022-08-19T00:52:49;30.07;;;16.27;;
9142;SDS011;54072;47.410;8.446;2022-08-19T00:55:18;48.30;;;17.40;;
9142;SDS011;54072;47.410;8.446;2022-08-19T00:57:49;31.20;;;15.77;;
9142;SDS011;54072;47.410;8.446;2022-08-19T01:00:21;35.63;;;15.70;;
9142;SDS011;54072;47.410;8.446;2022-08-19T01:02:50;27.60;;;15.77;;
9142;SDS011;54072;47.410;8.446;2022-08-19T01:05:18;29.83;;;15.40;;
9142;SDS011;54072;47.410;8.446;2022-08-19T01:07:47;29.63;;;16.27;;
9142;SDS011;54072;47.410;8.446;2022-08-19T01:10:16;33.37;;;16.07;;
9142;SDS011;54072;47.410;8.446;2022-08-19T01:12:45;34.23;;;17.10;;
9142;SDS011;54072;47.410;8.446;2022-08-19T01:15:14;24.00;;;15.07;;
9142;SDS011;54072;47.410;8.446;2022-08-19T01:17:42;26.80;;;15.60;;
9142;SDS011;54072;47.410;8.446;2022-08-19T01:20:14;34.57;;;16.20;;
9142;SDS011;54072;47.410;8.446;2022-08-19T01:22:45;40.33;;;16.93;;
9142;SDS011;54072;47.410;8.446;2022-08-19T01:25:12;44.40;;;16.97;;
9142;SDS011;54072;47.410;8.446;2022-08-19T01:27:41;29.30;;;16.03;;
9142;SDS011;54072;47.410;8.446;2022-08-19T01:30:09;27.53;;;16.20;;
9142;SDS011;54072;47.410;8.446;2022-08-19T01:32:37;26.93;;;15.30;;
9142;SDS011;54072;47.410;8.446;2022-08-19T01:35:05;32.80;;;16.30;;
9142;SDS011;54072;47.410;8.446;2022-08-19T01:37:41;36.70;;;16.17;;
9142;SDS011;54072;47.410;8.446;2022-08-19T01:40:10;33.37;;;16.57;;
9142;SDS011;54072;47.410;8.446;2022-08-19T01:42:38;26.17;;;16.53;;
9142;SDS011;54072;47.410;8.446;2022-08-19T01:45:07;24.70;;;15.73;;
9142;SDS011;54072;47.410;8.446;2022-08-19T01:47:35;33.00;;;16.83;;
9142;SDS011;54072;47.410;8.446;2022-08-19T01:50:03;26.63;;;15.67;;
9142;SDS011;54072;47.410;8.446;2022-08-19T01:52:31;26.47;;;15.77;;
9142;SDS011;54072;47.410;8.446;2022-08-19T01:54:59;29.67;;;16.13;;
9142;SDS011;54072;47.410;8.446;2022-08-19T01:57:28;36.70;;;16.53;;
9142;SDS011;54072;47.410;8.446;2022-08-19T01:59:55;29.53;;;17.07;;
9142;SDS011;54072;47.410;8.446;2022-08-19T02:02:23;34.20;;;16.63;;
9142;SDS011;54072;47.410;8.446;2022-08-19T02:04:51;24.60;;;15.47;;
9142;SDS011;54072;47.410;8.446;2022-08-19T02:07:19;28.10;;;15.13;;
9142;SDS011;54072;47.410;8.446;2022-08-19T02:09:47;28.97;;;15.83;;
9142;SDS011;54072;47.410;8.446;2022-08-19T02:12:15;29.17;;;16.63;;
9142;SDS011;54072;47.410;8.446;2022-08-19T02:14:44;27.47;;;16.13;;
9142;SDS011;54072;47.410;8.446;2022-08-19T02:17:12;31.20;;;16.83;;
9142;SDS011;54072;47.410;8.446;2022-08-19T02:19:39;30.90;;;16.50;;
9142;SDS011;54072;47.410;8.446;2022-08-19T02:22:07;44.30;;;16.93;;
9142;SDS011;54072;47.410;8.446;2022-08-19T02:24:34;24.60;;;15.53;;
9142;SDS011;54072;47.410;8.446;2022-08-19T02:27:02;28.77;;;16.77;;
9142;SDS011;54072;47.410;8.446;2022-08-19T02:29:30;28.83;;;16.27;;
9142;SDS011;54072;47.410;8.446;2022-08-19T02:31:59;35.40;;;17.47;;
9142;SDS011;54072;47.410;8.446;2022-08-19T02:34:27;34.77;;;16.87;;
9142;SDS011;54072;47.410;8.446;2022-08-19T02:36:55;29.17;;;16.63;;
9142;SDS011;54072;47.410;8.446;2022-08-19T02:39:24;51.30;;;17.27;;
9142;SDS011;54072;47.410;8.446;2022-08-19T02:41:52;29.70;;;16.93;;
9142;SDS011;54072;47.410;8.446;2022-08-19T02:44:19;28.07;;;16.43;;
9142;SDS011;54072;47.410;8.446;2022-08-19T02:46:47;35.53;;;17.77;;
9142;SDS011;54072;47.410;8.446;2022-08-19T02:49:17;29.30;;;16.40;;
9142;SDS011;54072;47.410;8.446;2022-08-19T02:51:45;36.60;;;17.30;;
9142;SDS011;54072;47.410;8.446;2022-08-19T02:54:13;27.10;;;16.67;;
9142;SDS011;54072;47.410;8.446;2022-08-19T02:56:41;33.07;;;17.13;;
9142;SDS011;54072;47.410;8.446;2022-08-19T02:59:09;32.47;;;17.73;;
9142;SDS011;54072;47.410;8.446;2022-08-19T03:01:38;31.37;;;16.63;;
9142;SDS011;54072;47.410;8.446;2022-08-19T03:04:07;31.83;;;17.77;;
9142;SDS011;54072;47.410;8.446;2022-08-19T03:06:37;30.93;;;18.03;;
9142;SDS011;54072;47.410;8.446;2022-08-19T03:09:04;29.77;;;17.87;;
9142;SDS011;54072;47.410;8.446;2022-08-19T03:11:32;36.00;;;17.73;;
9142;SDS011;54072;47.410;8.446;2022-08-19T03:14:00;30.93;;;16.93;;
9142;SDS011;54072;47.410;8.446;2022-08-19T03:16:28;32.03;;;18.03;;
9142;SDS011;54072;47.410;8.446;2022-08-19T03:18:56;34.37;;;17.90;;
9142;SDS011;54072;47.410;8.446;2022-08-19T03:21:26;33.53;;;18.00;;
9142;SDS011;54072;47.410;8.446;2022-08-19T03:23:55;34.93;;;18.70;;
9142;SDS011;54072;47.410;8.446;2022-08-19T03:26:23;35.43;;;18.87;;
9142;SDS011;54072;47.410;8.446;2022-08-19T03:28:50;39.07;;;19.53;;
9142;SDS011;54072;47.410;8.446;2022-08-19T03:31:19;37.20;;;19.47;;
9142;SDS011;54072;47.410;8.446;2022-08-19T03:33:47;33.10;;;18.63;;
9142;SDS011;54072;47.410;8.446;2022-08-19T03:36:16;35.47;;;19.57;;
9142;SDS011;54072;47.410;8.446;2022-08-19T03:38:45;34.27;;;19.23;;
9142;SDS011;54072;47.410;8.446;2022-08-19T03:41:15;32.47;;;19.40;;
9142;SDS011;54072;47.410;8.446;2022-08-19T03:43:43;41.00;;;19.77;;
9142;SDS011;54072;47.410;8.446;2022-08-19T03:46:13;37.00;;;20.43;;
9142;SDS011;54072;47.410;8.446;2022-08-19T03:48:42;34.67;;;18.73;;
9142;SDS011;54072;47.410;8.446;2022-08-19T03:51:15;39.60;;;20.17;;
9142;SDS011;54072;47.410;8.446;2022-08-19T03:53:43;40.40;;;20.17;;
9142;SDS011;54072;47.410;8.446;2022-08-19T03:56:11;40.23;;;19.73;;
9142;SDS011;54072;47.410;8.446;2022-08-19T03:58:40;36.77;;;20.00;;
9142;SDS011;54072;47.410;8.446;2022-08-19T04:01:08;39.33;;;20.93;;
9142;SDS011;54072;47.410;8.446;2022-08-19T04:03:37;38.73;;;20.93;;
9142;SDS011;54072;47.410;8.446;2022-08-19T04:06:11;41.50;;;21.33;;
9142;SDS011;54072;47.410;8.446;2022-08-19T04:08:39;38.10;;;20.60;;
9142;SDS011;54072;47.410;8.446;2022-08-19T04:11:06;42.70;;;21.50;;
9142;SDS011;54072;47.410;8.446;2022-08-19T04:13:34;40.57;;;21.70;;
9142;SDS011;54072;47.410;8.446;2022-08-19T04:16:04;41.00;;;22.00;;
9142;SDS011;54072;47.410;8.446;2022-08-19T04:18:32;39.73;;;22.00;;
9142;SDS011;54072;47.410;8.446;2022-08-19T04:21:01;38.47;;;22.57;;
9142;SDS011;54072;47.410;8.446;2022-08-19T04:23:29;40.97;;;22.63;;
9142;SDS011;54072;47.410;8.446;2022-08-19T04:25:57;41.90;;;23.27;;
9142;SDS011;54072;47.410;8.446;2022-08-19T04:28:24;36.77;;;21.50;;
9142;SDS011;54072;47.410;8.446;2022-08-19T04:30:53;33.23;;;22.03;;
9142;SDS011;54072;47.410;8.446;2022-08-19T04:33:23;31.37;;;20.73;;
9142;SDS011;54072;47.410;8.446;2022-08-19T04:35:51;32.60;;;20.60;;
9142;SDS011;54072;47.410;8.446;2022-08-19T04:38:20;35.87;;;21.27;;
9142;SDS011;54072;47.410;8.446;2022-08-19T04:40:49;29.13;;;20.17;;
9142;SDS011;54072;47.410;8.446;2022-08-19T04:43:35;26.83;;;18.77;;
9142;SDS011;54072;47.410;8.446;2022-08-19T04:46:04;26.77;;;18.63;;
9142;SDS011;54072;47.410;8.446;2022-08-19T04:48:33;24.20;;;16.83;;
9142;SDS011;54072;47.410;8.446;2022-08-19T04:51:00;21.30;;;16.47;;
9142;SDS011;54072;47.410;8.446;2022-08-19T04:53:32;19.03;;;15.40;;
9142;SDS011;54072;47.410;8.446;2022-08-19T04:56:03;18.27;;;14.83;;
9142;SDS011;54072;47.410;8.446;2022-08-19T04:58:30;16.27;;;13.73;;
9142;SDS011;54072;47.410;8.446;2022-08-19T05:00:58;15.60;;;13.60;;
9142;SDS011;54072;47.410;8.446;2022-08-19T05:03:27;14.10;;;12.60;;
9142;SDS011;54072;47.410;8.446;2022-08-19T05:06:05;14.17;;;12.17;;
9142;SDS011;54072;47.410;8.446;2022-08-19T05:08:34;14.03;;;12.53;;
9142;SDS011;54072;47.410;8.446;2022-08-19T05:11:07;14.53;;;12.50;;
9142;SDS011;54072;47.410;8.446;2022-08-19T05:13:34;13.97;;;12.30;;
9142;SDS011;54072;47.410;8.446;2022-08-19T05:16:02;14.03;;;12.53;;
9142;SDS011;54072;47.410;8.446;2022-08-19T05:18:30;13.70;;;11.73;;
9142;SDS011;54072;47.410;8.446;2022-08-19T05:21:17;13.43;;;12.00;;
9142;SDS011;54072;47.410;8.446;2022-08-19T05:24:03;15.07;;;12.37;;
9142;SDS011;54072;47.410;8.446;2022-08-19T05:26:34;15.20;;;13.60;;
9142;SDS011;54072;47.410;8.446;2022-08-19T05:29:02;15.23;;;13.23;;
9142;SDS011;54072;47.410;8.446;2022-08-19T05:31:30;13.83;;;12.43;;
9142;SDS011;54072;47.410;8.446;2022-08-19T05:34:01;15.40;;;13.00;;
9142;SDS011;54072;47.410;8.446;2022-08-19T05:36:35;13.60;;;12.17;;
9142;SDS011;54072;47.410;8.446;2022-08-19T05:39:04;17.00;;;13.67;;
9142;SDS011;54072;47.410;8.446;2022-08-19T05:41:41;16.47;;;13.70;;
9142;SDS011;54072;47.410;8.446;2022-08-19T05:44:08;15.93;;;13.90;;
9142;SDS011;54072;47.410;8.446;2022-08-19T05:46:36;15.07;;;12.70;;
9142;SDS011;54072;47.410;8.446;2022-08-19T05:49:04;15.80;;;11.87;;
9142;SDS011;54072;47.410;8.446;2022-08-19T05:51:33;15.70;;;12.10;;
9142;SDS011;54072;47.410;8.446;2022-08-19T05:54:02;14.17;;;12.50;;
9142;SDS011;54072;47.410;8.446;2022-08-19T05:56:29;16.03;;;12.63;;
9142;SDS011;54072;47.410;8.446;2022-08-19T05:58:58;13.43;;;11.90;;
9142;SDS011;54072;47.410;8.446;2022-08-19T06:01:26;13.63;;;12.23;;
9142;SDS011;54072;47.410;8.446;2022-08-19T06:03:53;13.43;;;11.53;;
9142;SDS011;54072;47.410;8.446;2022-08-19T06:06:21;13.07;;;11.73;;
9142;SDS011;54072;47.410;8.446;2022-08-19T06:08:50;12.77;;;11.47;;
9142;SDS011;54072;47.410;8.446;2022-08-19T06:11:19;14.07;;;11.93;;
9142;SDS011;54072;47.410;8.446;2022-08-19T06:13:47;17.87;;;11.70;;
9142;SDS011;54072;47.410;8.446;2022-08-19T06:16:18;17.77;;;12.37;;
9142;SDS011;54072;47.410;8.446;2022-08-19T06:18:49;16.37;;;12.23;;
9142;SDS011;54072;47.410;8.446;2022-08-19T06:21:18;13.60;;;11.93;;
9142;SDS011;54072;47.410;8.446;2022-08-19T06:23:46;14.17;;;12.23;;
9142;SDS011;54072;47.410;8.446;2022-08-19T06:26:15;13.07;;;11.63;;
9142;SDS011;54072;47.410;8.446;2022-08-19T06:28:43;16.17;;;13.20;;
9142;SDS011;54072;47.410;8.446;2022-08-19T06:31:13;15.67;;;12.33;;
9142;SDS011;54072;47.410;8.446;2022-08-19T06:33:42;13.73;;;12.33;;
9142;SDS011;54072;47.410;8.446;2022-08-19T06:36:16;15.43;;;12.67;;
9142;SDS011;54072;47.410;8.446;2022-08-19T06:38:43;15.13;;;11.83;;
9142;SDS011;54072;47.410;8.446;2022-08-19T06:41:11;14.13;;;12.63;;
9142;SDS011;54072;47.410;8.446;2022-08-19T06:43:40;13.13;;;11.73;;
9142;SDS011;54072;47.410;8.446;2022-08-19T06:46:12;14.27;;;12.40;;
9142;SDS011;54072;47.410;8.446;2022-08-19T06:48:40;13.13;;;11.20;;
9142;SDS011;54072;47.410;8.446;2022-08-19T06:51:07;13.63;;;11.70;;
9142;SDS011;54072;47.410;8.446;2022-08-19T06:53:35;13.40;;;12.00;;
9142;SDS011;54072;47.410;8.446;2022-08-19T06:56:02;12.97;;;11.57;;
9142;SDS011;54072;47.410;8.446;2022-08-19T06:58:30;12.17;;;10.97;;
9142;SDS011;54072;47.410;8.446;2022-08-19T07:01:00;11.67;;;10.47;;
9142;SDS011;54072;47.410;8.446;2022-08-19T07:03:29;11.63;;;10.50;;
9142;SDS011;54072;47.410;8.446;2022-08-19T07:05:58;11.67;;;10.37;;
9142;SDS011;54072;47.410;8.446;2022-08-19T07:08:32;10.77;;;9.67;;
9142;SDS011;54072;47.410;8.446;2022-08-19T07:11:00;11.20;;;10.17;;
9142;SDS011;54072;47.410;8.446;2022-08-19T07:13:27;13.37;;;11.73;;
9142;SDS011;54072;47.410;8.446;2022-08-19T07:15:55;11.30;;;10.20;;
9142;SDS011;54072;47.410;8.446;2022-08-19T07:18:24;11.77;;;10.37;;
9142;SDS011;54072;47.410;8.446;2022-08-19T07:21:01;11.80;;;10.70;;
9142;SDS011;54072;47.410;8.446;2022-08-19T07:23:28;12.93;;;10.93;;
9142;SDS011;54072;47.410;8.446;2022-08-19T07:25:56;15.20;;;12.30;;
9142;SDS011;54072;47.410;8.446;2022-08-19T07:28:24;12.83;;;11.17;;
9142;SDS011;54072;47.410;8.446;2022-08-19T07:30:51;15.00;;;12.47;;
9142;SDS011;54072;47.410;8.446;2022-08-19T07:33:19;14.07;;;12.23;;
9142;SDS011;54072;47.410;8.446;2022-08-19T07:35:48;14.40;;;12.40;;
9142;SDS011;54072;47.410;8.446;2022-08-19T07:38:16;13.43;;;12.03;;
9142;SDS011;54072;47.410;8.446;2022-08-19T07:44:08;14.97;;;13.37;;
9142;SDS011;54072;47.410;8.446;2022-08-19T07:46:36;14.80;;;13.20;;
9142;SDS011;54072;47.410;8.446;2022-08-19T07:49:05;17.73;;;13.93;;
9142;SDS011;54072;47.410;8.446;2022-08-19T07:51:34;15.87;;;13.57;;
9142;SDS011;54072;47.410;8.446;2022-08-19T07:54:02;16.17;;;12.83;;
9142;SDS011;54072;47.410;8.446;2022-08-19T07:56:30;16.17;;;13.70;;
9142;SDS011;54072;47.410;8.446;2022-08-19T07:58:57;15.80;;;13.53;;
9142;SDS011;54072;47.410;8.446;2022-08-19T08:01:25;16.33;;;14.20;;
9142;SDS011;54072;47.410;8.446;2022-08-19T08:03:54;17.70;;;13.50;;
9142;SDS011;54072;47.410;8.446;2022-08-19T08:06:40;19.23;;;15.20;;
9142;SDS011;54072;47.410;8.446;2022-08-19T08:09:27;16.57;;;14.10;;
9142;SDS011;54072;47.410;8.446;2022-08-19T08:11:56;17.83;;;14.90;;
9142;SDS011;54072;47.410;8.446;2022-08-19T08:14:26;20.93;;;15.30;;
9142;SDS011;54072;47.410;8.446;2022-08-19T08:16:55;21.50;;;15.83;;
9142;SDS011;54072;47.410;8.446;2022-08-19T08:19:24;20.27;;;16.17;;
9142;SDS011;54072;47.410;8.446;2022-08-19T08:21:53;20.07;;;14.90;;
9142;SDS011;54072;47.410;8.446;2022-08-19T08:24:21;19.10;;;15.13;;
9142;SDS011;54072;47.410;8.446;2022-08-19T08:26:49;20.43;;;15.97;;
9142;SDS011;54072;47.410;8.446;2022-08-19T08:29:16;22.10;;;16.80;;
9142;SDS011;54072;47.410;8.446;2022-08-19T08:31:46;20.73;;;16.97;;
9142;SDS011;54072;47.410;8.446;2022-08-19T08:34:13;21.10;;;16.60;;
9142;SDS011;54072;47.410;8.446;2022-08-19T08:36:44;22.43;;;16.87;;
9142;SDS011;54072;47.410;8.446;2022-08-19T08:39:13;23.90;;;17.27;;
9142;SDS011;54072;47.410;8.446;2022-08-19T08:41:44;25.03;;;18.70;;
9142;SDS011;54072;47.410;8.446;2022-08-19T08:44:13;25.43;;;17.77;;
9142;SDS011;54072;47.410;8.446;2022-08-19T08:46:43;25.47;;;19.27;;
9142;SDS011;54072;47.410;8.446;2022-08-19T08:49:16;25.87;;;18.63;;
9142;SDS011;54072;47.410;8.446;2022-08-19T08:51:47;27.07;;;19.30;;
9142;SDS011;54072;47.410;8.446;2022-08-19T08:54:17;29.43;;;20.03;;
9142;SDS011;54072;47.410;8.446;2022-08-19T08:56:46;31.07;;;19.70;;
9142;SDS011;54072;47.410;8.446;2022-08-19T08:59:16;31.90;;;19.67;;
9142;SDS011;54072;47.410;8.446;2022-08-19T09:01:46;32.77;;;19.07;;
9142;SDS011;54072;47.410;8.446;2022-08-19T09:04:14;25.77;;;18.77;;
9142;SDS011;54072;47.410;8.446;2022-08-19T09:06:44;31.80;;;19.23;;
9142;SDS011;54072;47.410;8.446;2022-08-19T09:09:14;25.27;;;19.10;;
9142;SDS011;54072;47.410;8.446;2022-08-19T09:11:56;25.70;;;18.73;;
9142;SDS011;54072;47.410;8.446;2022-08-19T09:14:32;31.00;;;20.17;;
9142;SDS011;54072;47.410;8.446;2022-08-19T09:17:17;31.63;;;20.77;;
9142;SDS011;54072;47.410;8.446;2022-08-19T09:19:51;29.13;;;20.67;;
9142;SDS011;54072;47.410;8.446;2022-08-19T09:22:18;32.10;;;21.40;;
9142;SDS011;54072;47.410;8.446;2022-08-19T09:24:48;34.03;;;21.67;;
9142;SDS011;54072;47.410;8.446;2022-08-19T09:27:17;29.80;;;21.03;;
9142;SDS011;54072;47.410;8.446;2022-08-19T09:29:46;31.77;;;21.77;;
9142;SDS011;54072;47.410;8.446;2022-08-19T09:32:14;29.50;;;22.03;;
9142;SDS011;54072;47.410;8.446;2022-08-19T09:34:43;37.67;;;22.37;;
9142;SDS011;54072;47.410;8.446;2022-08-19T09:37:14;34.37;;;22.80;;
9142;SDS011;54072;47.410;8.446;2022-08-19T09:39:41;34.03;;;22.20;;
9142;SDS011;54072;47.410;8.446;2022-08-19T09:42:09;33.00;;;22.40;;
9142;SDS011;54072;47.410;8.446;2022-08-19T09:44:39;36.87;;;23.57;;
9142;SDS011;54072;47.410;8.446;2022-08-19T09:47:08;36.13;;;22.93;;
9142;SDS011;54072;47.410;8.446;2022-08-19T09:49:36;36.90;;;23.83;;
9142;SDS011;54072;47.410;8.446;2022-08-19T09:52:04;41.70;;;24.87;;
9142;SDS011;54072;47.410;8.446;2022-08-19T09:54:31;41.33;;;24.63;;
9142;SDS011;54072;47.410;8.446;2022-08-19T09:56:59;39.13;;;23.60;;
9142;SDS011;54072;47.410;8.446;2022-08-19T09:59:27;43.30;;;25.80;;
9142;SDS011;54072;47.410;8.446;2022-08-19T10:01:56;36.83;;;25.13;;
9142;SDS011;54072;47.410;8.446;2022-08-19T10:04:23;43.20;;;24.87;;
9142;SDS011;54072;47.410;8.446;2022-08-19T10:07:12;39.77;;;24.83;;
9142;SDS011;54072;47.410;8.446;2022-08-19T10:09:39;41.53;;;24.93;;
9142;SDS011;54072;47.410;8.446;2022-08-19T10:12:07;44.90;;;25.60;;
9142;SDS011;54072;47.410;8.446;2022-08-19T10:14:35;38.00;;;25.13;;
9142;SDS011;54072;47.410;8.446;2022-08-19T10:17:04;45.90;;;25.90;;
9142;SDS011;54072;47.410;8.446;2022-08-19T10:19:36;52.50;;;27.07;;
9142;SDS011;54072;47.410;8.446;2022-08-19T10:22:06;39.60;;;26.10;;
9142;SDS011;54072;47.410;8.446;2022-08-19T10:28:33;41.30;;;27.63;;
9142;SDS011;54072;47.410;8.446;2022-08-19T10:31:04;43.97;;;26.60;;
9142;SDS011;54072;47.410;8.446;2022-08-19T10:33:34;49.17;;;27.77;;
9142;SDS011;54072;47.410;8.446;2022-08-19T10:36:03;46.87;;;26.73;;
9142;SDS011;54072;47.410;8.446;2022-08-19T10:38:31;46.40;;;28.33;;
9142;SDS011;54072;47.410;8.446;2022-08-19T10:41:06;49.03;;;29.10;;
9142;SDS011;54072;47.410;8.446;2022-08-19T10:43:33;48.37;;;28.87;;
9142;SDS011;54072;47.410;8.446;2022-08-19T10:46:04;54.03;;;29.20;;
9142;SDS011;54072;47.410;8.446;2022-08-19T10:48:31;53.47;;;30.13;;
9142;SDS011;54072;47.410;8.446;2022-08-19T10:51:03;50.07;;;28.97;;
9142;SDS011;54072;47.410;8.446;2022-08-19T10:53:48;48.33;;;28.87;;
9142;SDS011;54072;47.410;8.446;2022-08-19T10:56:16;47.63;;;28.53;;
9142;SDS011;54072;47.410;8.446;2022-08-19T10:59:02;51.97;;;28.97;;
9142;SDS011;54072;47.410;8.446;2022-08-19T11:01:30;54.77;;;29.07;;
9142;SDS011;54072;47.410;8.446;2022-08-19T11:03:59;54.37;;;29.37;;
9142;SDS011;54072;47.410;8.446;2022-08-19T11:06:28;52.00;;;29.63;;
9142;SDS011;54072;47.410;8.446;2022-08-19T11:08:56;58.90;;;29.17;;
9142;SDS011;54072;47.410;8.446;2022-08-19T11:11:24;48.30;;;29.20;;
9142;SDS011;54072;47.410;8.446;2022-08-19T11:13:51;47.33;;;28.77;;
9142;SDS011;54072;47.410;8.446;2022-08-19T11:16:20;46.67;;;28.57;;
9142;SDS011;54072;47.410;8.446;2022-08-19T11:18:48;49.97;;;29.23;;
9142;SDS011;54072;47.410;8.446;2022-08-19T11:21:17;57.20;;;30.43;;
9142;SDS011;54072;47.410;8.446;2022-08-19T11:23:48;52.23;;;30.27;;
9142;SDS011;54072;47.410;8.446;2022-08-19T11:26:17;40.97;;;27.53;;
9142;SDS011;54072;47.410;8.446;2022-08-19T11:28:45;46.47;;;29.23;;
9142;SDS011;54072;47.410;8.446;2022-08-19T11:31:14;40.70;;;28.17;;
9142;SDS011;54072;47.410;8.446;2022-08-19T11:33:42;36.57;;;25.10;;
9142;SDS011;54072;47.410;8.446;2022-08-19T11:36:09;40.40;;;27.53;;
9142;SDS011;54072;47.410;8.446;2022-08-19T11:38:37;46.30;;;28.43;;
9142;SDS011;54072;47.410;8.446;2022-08-19T11:41:06;40.83;;;27.07;;
9142;SDS011;54072;47.410;8.446;2022-08-19T11:43:34;44.93;;;27.90;;
9142;SDS011;54072;47.410;8.446;2022-08-19T11:46:03;40.03;;;26.27;;
9142;SDS011;54072;47.410;8.446;2022-08-19T11:48:33;38.97;;;27.10;;
9142;SDS011;54072;47.410;8.446;2022-08-19T11:51:03;40.67;;;26.43;;
9142;SDS011;54072;47.410;8.446;2022-08-19T11:53:32;39.87;;;27.63;;
9142;SDS011;54072;47.410;8.446;2022-08-19T11:56:01;40.13;;;25.63;;
9142;SDS011;54072;47.410;8.446;2022-08-19T11:58:30;44.97;;;27.23;;
9142;SDS011;54072;47.410;8.446;2022-08-19T12:00:58;36.80;;;26.40;;
9142;SDS011;54072;47.410;8.446;2022-08-19T12:03:25;38.07;;;26.80;;
9142;SDS011;54072;47.410;8.446;2022-08-19T12:05:53;38.30;;;25.20;;
9142;SDS011;54072;47.410;8.446;2022-08-19T12:08:21;35.30;;;23.83;;
9142;SDS011;54072;47.410;8.446;2022-08-19T12:10:48;31.03;;;23.40;;
9142;SDS011;54072;47.410;8.446;2022-08-19T12:13:16;31.10;;;22.90;;
9142;SDS011;54072;47.410;8.446;2022-08-19T12:15:46;34.17;;;22.80;;
9142;SDS011;54072;47.410;8.446;2022-08-19T12:18:14;30.47;;;21.57;;
9142;SDS011;54072;47.410;8.446;2022-08-19T12:20:42;31.63;;;22.70;;
9142;SDS011;54072;47.410;8.446;2022-08-19T12:23:11;28.83;;;21.70;;
9142;SDS011;54072;47.410;8.446;2022-08-19T12:25:43;29.30;;;22.13;;
9142;SDS011;54072;47.410;8.446;2022-08-19T12:28:18;30.47;;;21.90;;
9142;SDS011;54072;47.410;8.446;2022-08-19T12:30:49;34.07;;;22.27;;
9142;SDS011;54072;47.410;8.446;2022-08-19T12:33:17;26.37;;;21.00;;
9142;SDS011;54072;47.410;8.446;2022-08-19T12:35:45;28.77;;;21.17;;
9142;SDS011;54072;47.410;8.446;2022-08-19T12:38:13;30.70;;;22.47;;
9142;SDS011;54072;47.410;8.446;2022-08-19T12:40:41;31.40;;;22.27;;
9142;SDS011;54072;47.410;8.446;2022-08-19T12:43:08;27.50;;;21.13;;
9142;SDS011;54072;47.410;8.446;2022-08-19T12:45:37;28.30;;;20.67;;
9142;SDS011;54072;47.410;8.446;2022-08-19T12:48:06;25.30;;;19.70;;
9142;SDS011;54072;47.410;8.446;2022-08-19T12:50:38;24.97;;;20.00;;
9142;SDS011;54072;47.410;8.446;2022-08-19T12:53:07;30.50;;;19.83;;
9142;SDS011;54072;47.410;8.446;2022-08-19T12:55:35;25.63;;;18.80;;
9142;SDS011;54072;47.410;8.446;2022-08-19T12:58:02;27.93;;;20.23;;
9142;SDS011;54072;47.410;8.446;2022-08-19T13:00:30;26.40;;;20.40;;
9142;SDS011;54072;47.410;8.446;2022-08-19T13:02:58;25.87;;;19.83;;
9142;SDS011;54072;47.410;8.446;2022-08-19T13:05:28;23.13;;;19.63;;
9142;SDS011;54072;47.410;8.446;2022-08-19T13:07:57;26.17;;;20.33;;
9142;SDS011;54072;47.410;8.446;2022-08-19T13:10:26;24.63;;;19.47;;
9142;SDS011;54072;47.410;8.446;2022-08-19T13:12:54;26.33;;;20.07;;
9142;SDS011;54072;47.410;8.446;2022-08-19T13:15:22;25.27;;;20.37;;
9142;SDS011;54072;47.410;8.446;2022-08-19T13:17:52;25.73;;;20.00;;
9142;SDS011;54072;47.410;8.446;2022-08-19T13:20:20;26.47;;;21.17;;
9142;SDS011;54072;47.410;8.446;2022-08-19T13:22:49;26.20;;;19.60;;
9142;SDS011;54072;47.410;8.446;2022-08-19T13:25:16;27.73;;;19.53;;
9142;SDS011;54072;47.410;8.446;2022-08-19T13:27:46;25.40;;;20.20;;
9142;SDS011;54072;47.410;8.446;2022-08-19T13:30:14;24.70;;;19.50;;
9142;SDS011;54072;47.410;8.446;2022-08-19T13:33:00;23.97;;;19.63;;
9142;SDS011;54072;47.410;8.446;2022-08-19T13:35:41;23.13;;;19.03;;
9142;SDS011;54072;47.410;8.446;2022-08-19T13:38:11;22.90;;;18.80;;
9142;SDS011;54072;47.410;8.446;2022-08-19T13:40:39;24.63;;;19.83;;
9142;SDS011;54072;47.410;8.446;2022-08-19T13:43:07;23.03;;;18.93;;
9142;SDS011;54072;47.410;8.446;2022-08-19T13:45:35;23.40;;;18.90;;
9142;SDS011;54072;47.410;8.446;2022-08-19T13:48:04;23.43;;;19.47;;
9142;SDS011;54072;47.410;8.446;2022-08-19T13:50:33;23.53;;;19.00;;
9142;SDS011;54072;47.410;8.446;2022-08-19T13:53:00;23.53;;;19.03;;
9142;SDS011;54072;47.410;8.446;2022-08-19T13:55:30;22.50;;;18.40;;
9142;SDS011;54072;47.410;8.446;2022-08-19T13:57:58;22.03;;;19.00;;
9142;SDS011;54072;47.410;8.446;2022-08-19T14:00:28;23.53;;;19.33;;
9142;SDS011;54072;47.410;8.446;2022-08-19T14:02:56;22.27;;;17.97;;
9142;SDS011;54072;47.410;8.446;2022-08-19T14:05:25;21.70;;;18.73;;
9142;SDS011;54072;47.410;8.446;2022-08-19T14:07:52;23.43;;;18.77;;
9142;SDS011;54072;47.410;8.446;2022-08-19T14:10:20;21.77;;;18.60;;
9142;SDS011;54072;47.410;8.446;2022-08-19T14:12:51;21.80;;;18.87;;
9142;SDS011;54072;47.410;8.446;2022-08-19T14:15:19;22.17;;;19.47;;
9142;SDS011;54072;47.410;8.446;2022-08-19T14:17:46;23.50;;;19.27;;
9142;SDS011;54072;47.410;8.446;2022-08-19T14:20:15;22.33;;;17.80;;
9142;SDS011;54072;47.410;8.446;2022-08-19T14:22:43;20.10;;;17.77;;
9142;SDS011;54072;47.410;8.446;2022-08-19T14:25:15;21.77;;;18.43;;
9142;SDS011;54072;47.410;8.446;2022-08-19T14:27:42;20.90;;;18.33;;
9142;SDS011;54072;47.410;8.446;2022-08-19T14:30:13;21.23;;;18.33;;
9142;SDS011;54072;47.410;8.446;2022-08-19T14:32:41;23.30;;;18.90;;
9142;SDS011;54072;47.410;8.446;2022-08-19T14:35:10;21.60;;;19.20;;
9142;SDS011;54072;47.410;8.446;2022-08-19T14:37:38;21.70;;;18.63;;
9142;SDS011;54072;47.410;8.446;2022-08-19T14:40:06;22.10;;;17.77;;
9142;SDS011;54072;47.410;8.446;2022-08-19T14:42:34;20.30;;;17.87;;
9142;SDS011;54072;47.410;8.446;2022-08-19T14:45:02;26.03;;;19.57;;
9142;SDS011;54072;47.410;8.446;2022-08-19T14:47:32;22.53;;;18.17;;
9142;SDS011;54072;47.410;8.446;2022-08-19T14:50:00;23.10;;;19.33;;
9142;SDS011;54072;47.410;8.446;2022-08-19T14:52:27;21.67;;;19.03;;